Time,TemperatureF,DewpointF,PressureIn,WindDirection,WindDirectionDegrees,WindSpeedMPH,WindSpeedGustMPH,Humidity,HourlyPrecipIn,Conditions,Clouds,dailyrainin,SoftwareType,DateUTC
2013-01-13 00:03:00,57.0,57.0,30.07,ENE,72,0.0,4.0,100,0.00,,,1.09,,2013-01-13 05:03:00,
2013-01-13 00:12:00,56.0,56.0,30.07,ESE,116,0.0,2.0,100,0.00,,,1.08,,2013-01-13 05:12:00,
2013-01-13 00:33:00,56.0,56.0,30.07,ESE,116,0.0,2.0,100,0.00,,,1.08,,2013-01-13 05:33:00,
2013-01-13 00:42:00,56.0,56.0,30.07,ESE,116,0.0,2.0,100,0.00,,,1.08,,2013-01-13 05:42:00,
2013-01-13 00:53:00,56.0,56.0,30.07,ESE,116,0.0,2.0,100,0.00,,,1.08,,2013-01-13 05:53:00,
2013-01-13 01:03:00,56.0,56.0,30.07,ESE,116,0.0,2.0,100,0.00,,,1.08,,2013-01-13 06:03:00,
2013-01-13 01:12:00,56.0,56.0,30.05,East,83,0.0,4.0,100,0.00,,,1.07,,2013-01-13 06:12:00,
2013-01-13 01:33:00,56.0,56.0,30.05,East,83,0.0,4.0,100,0.00,,,1.07,,2013-01-13 06:33:00,
2013-01-13 01:42:00,56.0,56.0,30.05,East,83,0.0,4.0,100,0.00,,,1.07,,2013-01-13 06:42:00,
2013-01-13 01:52:00,56.0,56.0,30.05,East,83,0.0,4.0,100,0.00,,,1.07,,2013-01-13 06:52:00,
2013-01-13 02:02:00,56.0,56.0,30.05,East,83,0.0,4.0,100,0.00,,,1.07,,2013-01-13 07:02:00,
2013-01-13 02:12:00,57.0,56.0,30.05,East,80,1.0,7.0,98,0.00,,,1.07,,2013-01-13 07:12:00,
2013-01-13 02:33:00,57.0,56.0,30.05,East,80,1.0,7.0,98,0.00,,,1.07,,2013-01-13 07:33:00,
2013-01-13 02:42:00,57.0,56.0,30.05,East,80,1.0,7.0,98,0.00,,,1.07,,2013-01-13 07:42:00,
2013-01-13 02:53:00,57.0,56.0,30.05,East,80,1.0,7.0,98,0.00,,,1.07,,2013-01-13 07:53:00,
2013-01-13 03:02:00,57.0,56.0,30.05,East,80,1.0,7.0,98,0.00,,,1.07,,2013-01-13 08:02:00,
2013-01-13 03:12:00,57.0,56.0,30.03,ENE,76,2.0,8.0,97,0.00,,,1.07,,2013-01-13 08:12:00,
2013-01-13 03:32:00,57.0,56.0,30.03,ENE,76,2.0,8.0,97,0.00,,,1.07,,2013-01-13 08:32:00,
2013-01-13 03:42:00,57.0,56.0,30.03,ENE,76,2.0,8.0,97,0.00,,,1.07,,2013-01-13 08:42:00,
2013-01-13 03:53:00,57.0,56.0,30.03,ENE,76,2.0,8.0,97,0.00,,,1.07,,2013-01-13 08:53:00,
2013-01-13 04:02:00,57.0,56.0,30.03,ENE,76,2.0,8.0,97,0.00,,,1.07,,2013-01-13 09:02:00,
2013-01-13 04:12:00,57.0,56.0,30.03,East,86,4.0,16.0,96,0.00,,,1.07,,2013-01-13 09:12:00,
2013-01-13 04:32:00,57.0,56.0,30.03,East,86,4.0,16.0,96,0.00,,,1.07,,2013-01-13 09:32:00,
2013-01-13 04:43:00,57.0,56.0,30.03,East,86,4.0,16.0,96,0.00,,,1.07,,2013-01-13 09:43:00,
2013-01-13 04:53:00,57.0,56.0,30.03,East,86,4.0,16.0,96,0.00,,,1.07,,2013-01-13 09:53:00,
2013-01-13 05:03:00,57.0,56.0,30.03,East,86,4.0,16.0,96,0.00,,,1.07,,2013-01-13 10:03:00,
2013-01-13 05:12:00,57.0,56.0,30.04,NE,51,3.0,12.0,96,0.00,,,1.07,,2013-01-13 10:12:00,
2013-01-13 05:32:00,57.0,56.0,30.04,NE,51,3.0,12.0,96,0.00,,,1.07,,2013-01-13 10:32:00,
2013-01-13 05:42:00,57.0,56.0,30.04,NE,51,3.0,12.0,96,0.00,,,1.07,,2013-01-13 10:42:00,
2013-01-13 05:53:00,57.0,56.0,30.04,NE,51,3.0,12.0,96,0.00,,,1.07,,2013-01-13 10:53:00,
2013-01-13 06:02:00,57.0,56.0,30.04,NE,51,3.0,12.0,96,0.00,,,1.07,,2013-01-13 11:02:00,
2013-01-13 06:12:00,58.0,57.0,30.05,ESE,102,3.0,11.0,95,0.00,,,1.06,,2013-01-13 11:12:00,
2013-01-13 06:33:00,58.0,57.0,30.05,ESE,102,3.0,11.0,95,0.00,,,1.06,,2013-01-13 11:33:00,
2013-01-13 06:43:00,58.0,57.0,30.05,ESE,102,3.0,11.0,95,0.00,,,1.06,,2013-01-13 11:43:00,
2013-01-13 06:53:00,58.0,57.0,30.05,ESE,102,3.0,11.0,95,0.00,,,1.06,,2013-01-13 11:53:00,
2013-01-13 07:03:00,58.0,57.0,30.05,ESE,102,3.0,11.0,95,0.00,,,1.06,,2013-01-13 12:03:00,
2013-01-13 07:12:00,58.0,57.0,30.05,East,95,4.0,8.0,95,0.00,,,1.06,,2013-01-13 12:12:00,
2013-01-13 07:33:00,58.0,57.0,30.05,East,95,4.0,8.0,95,0.00,,,1.06,,2013-01-13 12:33:00,
2013-01-13 07:42:00,58.0,57.0,30.05,East,95,4.0,8.0,95,0.00,,,1.06,,2013-01-13 12:42:00,
2013-01-13 07:53:00,58.0,57.0,30.05,East,95,4.0,8.0,95,0.00,,,1.06,,2013-01-13 12:53:00,
2013-01-13 08:03:00,58.0,57.0,30.05,East,95,4.0,8.0,95,0.00,,,1.06,,2013-01-13 13:03:00,
2013-01-13 08:12:00,58.0,57.0,30.08,ESE,106,1.0,7.0,95,0.00,,,1.06,,2013-01-13 13:12:00,
2013-01-13 08:33:00,58.0,57.0,30.08,ESE,106,1.0,7.0,95,0.00,,,1.06,,2013-01-13 13:33:00,
2013-01-13 08:43:00,58.0,57.0,30.08,ESE,106,1.0,7.0,95,0.00,,,1.06,,2013-01-13 13:43:00,
2013-01-13 08:53:00,58.0,57.0,30.08,ESE,106,1.0,7.0,95,0.00,,,1.06,,2013-01-13 13:53:00,
2013-01-13 09:03:00,58.0,57.0,30.08,ESE,106,1.0,7.0,95,0.00,,,1.06,,2013-01-13 14:03:00,
2013-01-13 09:12:00,59.0,57.0,30.10,ENE,69,2.0,7.0,92,0.00,,,0.00,,2013-01-13 14:12:00,
2013-01-13 09:33:00,59.0,57.0,30.10,ENE,69,2.0,7.0,92,0.00,,,0.00,,2013-01-13 14:33:00,
2013-01-13 09:43:00,59.0,57.0,30.10,ENE,69,2.0,7.0,92,0.00,,,0.00,,2013-01-13 14:43:00,
2013-01-13 09:53:00,59.0,57.0,30.10,ENE,69,2.0,7.0,92,0.00,,,0.00,,2013-01-13 14:53:00,
2013-01-13 10:03:00,59.0,57.0,30.10,ENE,69,2.0,7.0,92,0.00,,,0.00,,2013-01-13 15:03:00,
2013-01-13 10:12:00,61.0,57.0,30.10,ESE,104,2.0,11.0,86,0.00,,,0.00,,2013-01-13 15:12:00,
2013-01-13 10:33:00,61.0,57.0,30.10,ESE,104,2.0,11.0,86,0.00,,,0.00,,2013-01-13 15:33:00,
2013-01-13 10:43:00,61.0,57.0,30.10,ESE,104,2.0,11.0,86,0.00,,,0.00,,2013-01-13 15:43:00,
2013-01-13 10:53:00,61.0,57.0,30.10,ESE,104,2.0,11.0,86,0.00,,,0.00,,2013-01-13 15:53:00,
2013-01-13 11:03:00,61.0,57.0,30.10,ESE,104,2.0,11.0,86,0.00,,,0.00,,2013-01-13 16:03:00,
2013-01-13 11:12:00,64.0,58.0,30.07,East,90,2.0,7.0,81,0.00,,,0.00,,2013-01-13 16:12:00,
2013-01-13 11:33:00,64.0,58.0,30.07,East,90,2.0,7.0,81,0.00,,,0.00,,2013-01-13 16:33:00,
2013-01-13 11:43:00,64.0,58.0,30.07,East,90,2.0,7.0,81,0.00,,,0.00,,2013-01-13 16:43:00,
2013-01-13 11:53:00,64.0,58.0,30.07,East,90,2.0,7.0,81,0.00,,,0.00,,2013-01-13 16:53:00,
2013-01-13 12:03:00,64.0,58.0,30.07,East,90,2.0,7.0,81,0.00,,,0.00,,2013-01-13 17:03:00,
2013-01-13 12:12:00,62.0,57.0,30.06,SSW,212,2.0,6.0,84,0.00,,,0.00,,2013-01-13 17:12:00,
2013-01-13 12:33:00,62.0,57.0,30.06,SSW,212,2.0,6.0,84,0.00,,,0.00,,2013-01-13 17:33:00,
2013-01-13 12:43:00,62.0,57.0,30.06,SSW,212,2.0,6.0,84,0.00,,,0.00,,2013-01-13 17:43:00,
2013-01-13 12:53:00,62.0,57.0,30.06,SSW,212,2.0,6.0,84,0.00,,,0.00,,2013-01-13 17:53:00,
2013-01-13 13:03:00,62.0,57.0,30.06,SSW,212,2.0,6.0,84,0.00,,,0.00,,2013-01-13 18:03:00,
2013-01-13 13:12:00,62.0,58.0,30.04,ESE,106,0.0,6.0,86,0.00,,,0.00,,2013-01-13 18:12:00,
2013-01-13 13:33:00,62.0,58.0,30.04,ESE,106,0.0,6.0,86,0.00,,,0.00,,2013-01-13 18:33:00,
2013-01-13 13:43:00,62.0,58.0,30.04,ESE,106,0.0,6.0,86,0.00,,,0.00,,2013-01-13 18:43:00,
2013-01-13 13:53:00,62.0,58.0,30.04,ESE,106,0.0,6.0,86,0.00,,,0.00,,2013-01-13 18:53:00,
2013-01-13 14:03:00,62.0,58.0,30.04,ESE,106,0.0,6.0,86,0.00,,,0.00,,2013-01-13 19:03:00,
2013-01-13 14:12:00,62.0,57.0,30.03,East,89,3.0,14.0,85,0.00,,,0.00,,2013-01-13 19:12:00,
2013-01-13 14:33:00,62.0,57.0,30.03,East,89,3.0,14.0,85,0.00,,,0.00,,2013-01-13 19:33:00,
2013-01-13 14:43:00,62.0,57.0,30.03,East,89,3.0,14.0,85,0.00,,,0.00,,2013-01-13 19:43:00,
2013-01-13 14:53:00,62.0,57.0,30.03,East,89,3.0,14.0,85,0.00,,,0.00,,2013-01-13 19:53:00,
2013-01-13 15:03:00,62.0,57.0,30.03,East,89,3.0,14.0,85,0.00,,,0.00,,2013-01-13 20:03:00,
2013-01-13 15:12:00,62.0,57.0,30.04,NNW,337,1.0,7.0,85,0.00,,,0.00,,2013-01-13 20:12:00,
2013-01-13 15:33:00,62.0,57.0,30.04,NNW,337,1.0,7.0,85,0.00,,,0.00,,2013-01-13 20:33:00,
2013-01-13 15:43:00,62.0,57.0,30.04,NNW,337,1.0,7.0,85,0.00,,,0.00,,2013-01-13 20:43:00,
2013-01-13 15:53:00,62.0,57.0,30.04,NNW,337,1.0,7.0,85,0.00,,,0.00,,2013-01-13 20:53:00,
2013-01-13 16:03:00,62.0,57.0,30.04,NNW,337,1.0,7.0,85,0.00,,,0.00,,2013-01-13 21:03:00,
2013-01-13 16:12:00,60.0,57.0,30.06,ESE,106,0.0,6.0,89,0.00,,,0.00,,2013-01-13 21:12:00,
2013-01-13 16:33:00,60.0,57.0,30.06,ESE,106,0.0,6.0,89,0.00,,,0.00,,2013-01-13 21:33:00,
2013-01-13 16:43:00,60.0,57.0,30.06,ESE,106,0.0,6.0,89,0.00,,,0.00,,2013-01-13 21:43:00,
2013-01-13 16:53:00,60.0,57.0,30.06,ESE,106,0.0,6.0,89,0.00,,,0.00,,2013-01-13 21:53:00,
2013-01-13 17:03:00,60.0,57.0,30.06,ESE,106,0.0,6.0,89,0.00,,,0.00,,2013-01-13 22:03:00,
2013-01-13 18:12:00,59.0,57.0,30.05,East,96,0.0,2.0,92,0.00,,,0.00,,2013-01-13 23:12:00,
2013-01-13 18:33:00,59.0,57.0,30.05,East,96,0.0,2.0,92,0.00,,,0.00,,2013-01-13 23:33:00,
2013-01-13 18:43:00,59.0,57.0,30.05,East,96,0.0,2.0,92,0.00,,,0.00,,2013-01-13 23:43:00,
2013-01-13 18:53:00,59.0,57.0,30.05,East,96,0.0,2.0,92,0.00,,,0.00,,2013-01-13 23:53:00,
2013-01-13 19:03:00,59.0,57.0,30.05,East,96,0.0,2.0,92,0.00,,,0.00,,2013-01-14 00:03:00,
2013-01-13 20:33:00,58.0,57.0,30.04,East,92,0.0,0.0,97,0.00,,,0.00,,2013-01-14 01:33:00,
2013-01-13 20:42:00,58.0,57.0,30.04,East,92,0.0,0.0,97,0.00,,,0.00,,2013-01-14 01:42:00,
2013-01-13 20:53:00,58.0,57.0,30.04,East,92,0.0,0.0,97,0.00,,,0.00,,2013-01-14 01:53:00,
2013-01-13 21:03:00,58.0,57.0,30.04,East,92,0.0,0.0,97,0.00,,,0.00,,2013-01-14 02:03:00,
2013-01-13 21:12:00,58.0,57.0,30.04,East,92,0.0,0.0,97,0.00,,,0.00,,2013-01-14 02:12:00,
2013-01-13 21:33:00,58.0,57.0,30.04,SSE,168,0.0,1.0,96,0.00,,,0.00,,2013-01-14 02:33:00,
2013-01-13 21:43:00,58.0,57.0,30.04,SSE,168,0.0,1.0,96,0.00,,,0.00,,2013-01-14 02:43:00,
2013-01-13 21:53:00,58.0,57.0,30.04,SSE,168,0.0,1.0,96,0.00,,,0.00,,2013-01-14 02:53:00,
2013-01-13 22:03:00,58.0,57.0,30.04,SSE,168,0.0,1.0,96,0.00,,,0.00,,2013-01-14 03:03:00,
2013-01-13 22:12:00,58.0,58.0,30.03,ESE,123,0.0,3.0,100,0.00,,,0.00,,2013-01-14 03:12:00,
2013-01-13 22:33:00,58.0,58.0,30.03,ESE,123,0.0,3.0,100,0.00,,,0.00,,2013-01-14 03:33:00,
2013-01-13 22:43:00,58.0,58.0,30.03,ESE,123,0.0,3.0,100,0.00,,,0.00,,2013-01-14 03:43:00,
2013-01-13 22:53:00,58.0,58.0,30.03,ESE,123,0.0,3.0,100,0.00,,,0.00,,2013-01-14 03:53:00,
2013-01-13 23:03:00,58.0,58.0,30.03,ESE,123,0.0,3.0,100,0.00,,,0.00,,2013-01-14 04:03:00,
2013-01-13 23:12:00,58.0,58.0,30.04,SE,128,0.0,1.0,100,0.00,,,0.00,,2013-01-14 04:12:00,
2013-01-13 23:32:00,58.0,58.0,30.04,SE,128,0.0,1.0,100,0.00,,,0.00,,2013-01-14 04:32:00,
2013-01-13 23:42:00,58.0,58.0,30.04,SE,128,0.0,1.0,100,0.00,,,0.00,,2013-01-14 04:42:00,
2013-01-13 23:53:00,58.0,58.0,30.04,SE,128,0.0,1.0,100,0.00,,,0.00,,2013-01-14 04:53:00,